createdAt,value
2018-12-21T00:02:04.074Z,98521.02
2018-12-21T00:04:32.530Z,98521.34
2018-12-21T00:07:00.994Z,98527.26
2018-12-21T00:09:29.464Z,98529.25
2018-12-21T00:11:57.937Z,98529.06
2018-12-21T00:14:26.399Z,98525.94
2018-12-21T00:16:54.851Z,98532.68
2018-12-21T00:19:23.294Z,98521.52
2018-12-21T00:21:51.751Z,98517.56
2018-12-21T00:24:20.263Z,98522.00
2018-12-21T00:26:48.735Z,98525.47
2018-12-21T00:29:17.171Z,98526.95
2018-12-21T00:31:50.840Z,98527.59
2018-12-21T00:34:24.563Z,98526.10
2018-12-21T00:36:59.007Z,98521.83
2018-12-21T00:39:32.811Z,98520.20
2018-12-21T00:42:00.436Z,98514.44
2018-12-21T00:44:34.110Z,98511.63
2018-12-21T00:47:06.962Z,98516.91
2018-12-21T00:49:35.396Z,98507.52
2018-12-21T00:52:03.886Z,98507.37
2018-12-21T00:54:32.467Z,98505.86
2018-12-21T00:57:00.945Z,98508.32
2018-12-21T00:59:29.383Z,98506.38
2018-12-21T01:01:57.842Z,98508.83
2018-12-21T01:04:26.292Z,98498.45
2018-12-21T01:06:54.759Z,98499.28
2018-12-21T01:09:23.451Z,98504.22
2018-12-21T01:11:51.986Z,98499.47
2018-12-21T01:14:20.471Z,98502.72
2018-12-21T01:16:49.008Z,98513.27
2018-12-21T01:19:17.431Z,98512.09
2018-12-21T01:21:45.891Z,98500.59
2018-12-21T01:24:14.392Z,98497.97
2018-12-21T01:26:42.841Z,98499.44
2018-12-21T01:29:11.265Z,98496.49
2018-12-21T01:31:39.730Z,98507.17
2018-12-21T01:34:08.154Z,98503.72
2018-12-21T01:36:36.622Z,98504.56
2018-12-21T01:39:06.521Z,98509.97
2018-12-21T01:41:35.074Z,98503.23
2018-12-21T01:44:03.653Z,98503.39
2018-12-21T01:46:32.120Z,98504.72
2018-12-21T01:49:00.543Z,98499.12
2018-12-21T01:51:29.019Z,98501.25
2018-12-21T01:53:57.467Z,98494.84
2018-12-21T01:56:25.947Z,98493.18
2018-12-21T01:58:54.375Z,98496.48
2018-12-21T02:01:22.806Z,98492.69
2018-12-21T02:03:51.273Z,98490.22
2018-12-21T02:06:19.707Z,98497.47
2018-12-21T02:08:48.211Z,98493.83
2018-12-21T02:11:16.626Z,98495.66
2018-12-21T02:13:45.079Z,98485.78
2018-12-21T02:16:13.551Z,98493.02
2018-12-21T02:18:42.026Z,98482.83
2018-12-21T02:21:10.479Z,98481.69
2018-12-21T02:23:38.944Z,98485.28
2018-12-21T02:26:07.382Z,98483.97
2018-12-21T02:28:35.849Z,98483.34
2018-12-21T02:31:04.314Z,98481.35
2018-12-21T02:33:32.779Z,98478.58
2018-12-21T02:36:01.216Z,98483.34
2018-12-21T02:38:29.663Z,98473.44
2018-12-21T02:40:58.088Z,98479.36
2018-12-21T02:43:26.551Z,98474.28
2018-12-21T02:45:54.978Z,98474.11
2018-12-21T02:48:23.640Z,98476.75
2018-12-21T02:50:52.103Z,98468.02
2018-12-21T02:53:20.582Z,98470.33
2018-12-21T02:55:49.047Z,98467.70
2018-12-21T02:58:17.512Z,98458.32
2018-12-21T03:00:45.992Z,98457.32
2018-12-21T03:03:14.473Z,98455.34
2018-12-21T03:05:42.915Z,98453.52
2018-12-21T03:08:11.375Z,98452.37
2018-12-21T03:10:39.811Z,98451.70
2018-12-21T03:13:08.269Z,98453.69
2018-12-21T03:15:36.732Z,98453.86
2018-12-21T03:18:05.202Z,98464.73
2018-12-21T03:20:33.638Z,98456.17
2018-12-21T03:23:02.106Z,98453.71
2018-12-21T03:25:30.573Z,98449.09
2018-12-21T03:27:59.042Z,98455.70
2018-12-21T03:30:27.485Z,98452.72
2018-12-21T03:32:55.938Z,98456.34
2018-12-21T03:35:24.395Z,98446.00
2018-12-21T03:37:52.871Z,98450.91
2018-12-21T03:40:21.432Z,98450.59
2018-12-21T03:42:49.899Z,98438.75
2018-12-21T03:45:18.338Z,98445.16
2018-12-21T03:47:46.805Z,98429.53
2018-12-21T03:50:15.246Z,98435.30
2018-12-21T03:52:43.691Z,98431.84
2018-12-21T03:55:12.248Z,98428.06
2018-12-21T03:57:40.706Z,98425.59
2018-12-21T04:00:09.502Z,98423.61
2018-12-21T04:02:37.987Z,98428.24
2018-12-21T04:05:06.422Z,98414.58
2018-12-21T04:07:34.904Z,98407.83
2018-12-21T04:10:03.472Z,98400.28
2018-12-21T04:12:31.938Z,98388.92
2018-12-21T04:15:00.406Z,98395.66
2018-12-21T04:17:28.867Z,98377.89
2018-12-21T04:19:57.309Z,98378.20
2018-12-21T04:22:34.107Z,98379.70
2018-12-21T04:24:56.228Z,98375.09
2018-12-21T04:27:24.711Z,98370.80
2018-12-21T04:29:53.171Z,98372.77
2018-12-21T04:32:21.613Z,98375.75
2018-12-21T04:34:50.052Z,98380.67
2018-12-21T04:37:18.593Z,98384.14
2018-12-21T04:39:47.068Z,98390.05
2018-12-21T04:42:15.506Z,98388.88
2018-12-21T04:44:43.973Z,98395.64
2018-12-21T04:47:12.397Z,98387.59
2018-12-21T04:49:40.850Z,98383.95
2018-12-21T04:52:09.298Z,98373.77
2018-12-21T04:54:37.758Z,98375.26
2018-12-21T04:57:06.188Z,98365.05
2018-12-21T04:59:34.635Z,98358.64
2018-12-21T05:02:03.201Z,98362.75
2018-12-21T05:04:31.672Z,98358.95
2018-12-21T05:07:00.111Z,98356.98
2018-12-21T05:09:28.563Z,98362.24
2018-12-21T05:11:57.178Z,98351.02
2018-12-21T05:14:25.677Z,98358.61
2018-12-21T05:16:54.100Z,98355.80
2018-12-21T05:19:24.099Z,98353.52
2018-12-21T05:21:52.723Z,98342.64
2018-12-21T05:24:21.200Z,98337.23
2018-12-21T05:26:49.727Z,98340.01
2018-12-21T05:29:18.188Z,98328.99
2018-12-21T05:31:46.609Z,98324.87
2018-12-21T05:34:15.089Z,98320.61
2018-12-21T05:36:43.571Z,98313.02
2018-12-21T05:39:12.028Z,98312.53
2018-12-21T05:41:40.506Z,98320.27
2018-12-21T05:44:08.983Z,98316.66
2018-12-21T05:46:37.451Z,98316.66
2018-12-21T05:49:05.934Z,98317.80
2018-12-21T05:51:34.368Z,98309.59
2018-12-21T05:54:02.828Z,98309.11
2018-12-21T05:56:31.277Z,98297.41
2018-12-21T05:58:59.743Z,98286.38
2018-12-21T06:01:28.188Z,98283.58
2018-12-21T06:03:56.633Z,98280.72
2018-12-21T06:06:25.063Z,98274.80
2018-12-21T06:08:53.531Z,98261.67
2018-12-21T06:11:21.964Z,98263.66
2018-12-21T06:13:50.428Z,98259.89
2018-12-21T06:16:19.289Z,98262.70
2018-12-21T06:18:47.748Z,98266.65
2018-12-21T06:21:16.202Z,98249.58
2018-12-21T06:23:44.719Z,98254.84
2018-12-21T06:26:13.159Z,98262.22
2018-12-21T06:28:41.760Z,98265.02
2018-12-21T06:31:10.212Z,98259.27
2018-12-21T06:33:38.826Z,98255.64
2018-12-21T06:36:07.263Z,98251.39
2018-12-21T06:38:38.420Z,98249.27
2018-12-21T06:41:07.018Z,98246.30
2018-12-21T06:43:35.471Z,98241.52
2018-12-21T06:46:03.994Z,98244.98
2018-12-21T06:48:32.695Z,98241.34
2018-12-21T06:51:01.127Z,98245.63
2018-12-21T06:53:29.661Z,98241.86
2018-12-21T06:55:58.138Z,98241.52
2018-12-21T06:58:26.641Z,98243.14
2018-12-21T07:00:55.095Z,98239.66
2018-12-21T07:03:23.527Z,98233.08
2018-12-21T07:05:51.992Z,98244.27
2018-12-21T07:08:20.419Z,98242.30
2018-12-21T07:10:48.886Z,98244.26
2018-12-21T07:13:17.306Z,98237.82
2018-12-21T07:15:45.824Z,98233.21
2018-12-21T07:18:14.260Z,98222.50
2018-12-21T07:20:42.736Z,98236.62
2018-12-21T07:23:11.217Z,98242.05
2018-12-21T07:25:39.959Z,98234.62
2018-12-21T07:28:08.499Z,98244.31
2018-12-21T07:30:36.963Z,98245.64
2018-12-21T07:33:05.517Z,98242.30
2018-12-21T07:35:34.016Z,98242.47
2018-12-21T07:38:02.456Z,98233.61
2018-12-21T07:40:30.930Z,98237.62
2018-12-21T07:42:59.368Z,98233.19
2018-12-21T07:45:27.970Z,98222.49
2018-12-21T07:47:56.414Z,98220.34
2018-12-21T07:50:24.877Z,98216.39
2018-12-21T07:52:53.468Z,98212.92
2018-12-21T07:55:21.992Z,98207.48
2018-12-21T07:57:50.430Z,98209.31
2018-12-21T08:00:18.905Z,98210.30
2018-12-21T08:02:47.332Z,98199.58
2018-12-21T08:05:15.804Z,98195.81
2018-12-21T08:07:44.259Z,98206.51
2018-12-21T08:10:16.900Z,98201.73
2018-12-21T08:12:45.334Z,98198.08
2018-12-21T08:15:13.843Z,98197.39
2018-12-21T08:17:42.404Z,98198.72
2018-12-21T08:20:11.039Z,98202.80
2018-12-21T08:22:39.499Z,98195.89
2018-12-21T08:25:08.315Z,98201.94
2018-12-21T08:27:36.785Z,98191.52
2018-12-21T08:30:06.611Z,98184.62
2018-12-21T08:32:35.074Z,98182.09
2018-12-21T08:35:03.548Z,98175.48
2018-12-21T08:37:32.017Z,98172.02
2018-12-21T08:40:00.465Z,98174.15
2018-12-21T08:42:29.203Z,98176.91
2018-12-21T08:44:57.754Z,98176.02
2018-12-21T08:47:26.315Z,98176.80
2018-12-21T08:49:54.751Z,98173.33
2018-12-21T08:52:23.232Z,98173.88
2018-12-21T08:54:51.647Z,98165.42
2018-12-21T08:57:20.105Z,98149.14
2018-12-21T08:59:48.530Z,98155.80
2018-12-21T09:02:16.999Z,98151.80
2018-12-21T09:04:45.427Z,98137.37
2018-12-21T09:07:13.876Z,98138.00
2018-12-21T09:09:42.315Z,98136.30
2018-12-21T09:12:10.812Z,98136.80
2018-12-21T09:14:39.294Z,98137.25
2018-12-21T09:17:07.889Z,98136.38
2018-12-21T09:19:36.319Z,98126.13
2018-12-21T09:22:04.875Z,98122.69
2018-12-21T09:24:33.310Z,98113.30
2018-12-21T09:27:01.804Z,98114.02
2018-12-21T09:29:30.238Z,98112.67
2018-12-21T09:32:04.990Z,98107.02
2018-12-21T09:34:29.227Z,98097.44
2018-12-21T09:36:57.704Z,98097.29
2018-12-21T09:39:26.144Z,98079.64
2018-12-21T09:41:54.643Z,98081.45
2018-12-21T09:44:23.063Z,98086.62
2018-12-21T09:46:51.483Z,98094.61
2018-12-21T09:49:19.963Z,98084.88
2018-12-21T09:51:48.407Z,98094.00
2018-12-21T09:54:16.880Z,98082.20
2018-12-21T09:56:45.326Z,98074.19
2018-12-21T09:59:13.788Z,98071.81
2018-12-21T10:01:42.284Z,98070.84
2018-12-21T10:04:10.768Z,98062.42
2018-12-21T10:06:39.231Z,98065.51
2018-12-21T10:09:08.375Z,98067.02
2018-12-21T10:11:36.863Z,98065.84
2018-12-21T10:14:05.478Z,98065.86
2018-12-21T10:16:34.004Z,98058.05
2018-12-21T10:19:02.579Z,98057.84
2018-12-21T10:21:31.061Z,98054.91
2018-12-21T10:23:59.559Z,98040.77
2018-12-21T10:26:28.014Z,98046.79
2018-12-21T10:28:56.499Z,98040.77
2018-12-21T10:31:24.935Z,98042.20
2018-12-21T10:33:53.561Z,98034.78
2018-12-21T10:36:22.022Z,98040.83
2018-12-21T10:38:50.531Z,98024.84
2018-12-21T10:41:18.970Z,98041.94
2018-12-21T10:43:47.440Z,98036.02
2018-12-21T10:46:15.924Z,98035.16
2018-12-21T10:48:44.408Z,98038.92
2018-12-21T10:51:12.901Z,98042.09
2018-12-21T10:53:41.390Z,98057.45
2018-12-21T10:56:09.970Z,98052.36
2018-12-21T10:58:38.443Z,98053.85
2018-12-21T11:01:06.915Z,98040.38
2018-12-21T11:03:35.584Z,98040.23
2018-12-21T11:06:04.168Z,98018.23
2018-12-21T11:08:32.635Z,98005.65
2018-12-21T11:11:01.327Z,97994.19
2018-12-21T11:13:29.819Z,97976.24
2018-12-21T11:15:58.333Z,97962.27
2018-12-21T11:18:26.806Z,97940.59
2018-12-21T11:20:55.304Z,97937.50
2018-12-21T11:23:24.692Z,97936.55
2018-12-21T11:25:53.437Z,97924.06
2018-12-21T11:28:25.528Z,97919.53
2018-12-21T11:30:52.541Z,97909.12
2018-12-21T11:33:21.017Z,97909.58
2018-12-21T11:35:49.563Z,97901.30
2018-12-21T11:38:18.024Z,97898.55
2018-12-21T11:40:46.555Z,97895.91
2018-12-21T11:43:14.996Z,97887.77
2018-12-21T11:45:43.492Z,97881.08
2018-12-21T11:48:11.951Z,97880.16
2018-12-21T11:50:40.463Z,97875.23
2018-12-21T11:53:08.918Z,97876.42
2018-12-21T11:55:37.412Z,97864.45
2018-12-21T11:58:05.903Z,97862.51
2018-12-21T12:00:34.482Z,97849.27
2018-12-21T12:03:02.930Z,97836.23
2018-12-21T12:05:31.789Z,97830.45
2018-12-21T12:08:00.252Z,97822.39
2018-12-21T12:10:28.722Z,97816.56
2018-12-21T12:12:57.159Z,97810.46
2018-12-21T12:15:25.671Z,97805.64
2018-12-21T12:17:54.184Z,97811.27
2018-12-21T12:20:22.763Z,97805.17
2018-12-21T12:22:51.230Z,97803.22
2018-12-21T12:25:19.740Z,97810.74
2018-12-21T12:27:48.268Z,97797.90
2018-12-21T12:30:16.735Z,97807.61
2018-12-21T12:32:45.210Z,97801.36
2018-12-21T12:35:13.654Z,97795.90
2018-12-21T12:37:42.153Z,97770.30
2018-12-21T12:40:10.634Z,97759.02
2018-12-21T12:42:39.115Z,97758.88
2018-12-21T12:45:08.687Z,97764.41
2018-12-21T12:47:37.155Z,97765.66
2018-12-21T12:50:05.983Z,97756.63
2018-12-21T12:52:34.541Z,97761.08
2018-12-21T12:55:03.311Z,97754.63
2018-12-21T12:57:32.008Z,97735.65
2018-12-21T13:00:00.441Z,97730.02
2018-12-21T13:02:28.980Z,97715.63
2018-12-21T13:04:57.444Z,97710.35
2018-12-21T13:07:25.935Z,97709.38
2018-12-21T13:09:54.468Z,97692.30
2018-12-21T13:12:23.031Z,97689.33
2018-12-21T13:14:51.569Z,97708.85
2018-12-21T13:17:20.096Z,97696.20
2018-12-21T13:19:48.636Z,97700.00
2018-12-21T13:22:17.120Z,97689.45
2018-12-21T13:24:45.575Z,97696.34
2018-12-21T13:27:14.058Z,97697.31
2018-12-21T13:29:42.504Z,97696.80
2018-12-21T13:32:10.983Z,97683.25
2018-12-21T13:34:39.446Z,97681.50
2018-12-21T13:37:08.004Z,97682.69
2018-12-21T13:39:40.414Z,97683.25
2018-12-21T13:42:08.914Z,97683.51
2018-12-21T13:44:37.383Z,97673.61
2018-12-21T13:47:05.859Z,97672.34
2018-12-21T13:49:34.318Z,97674.69
2018-12-21T13:52:02.820Z,97677.48
2018-12-21T13:54:31.263Z,97674.84
2018-12-21T13:56:59.749Z,97673.86
2018-12-21T13:59:28.203Z,97673.86
2018-12-21T14:01:56.689Z,97685.14
2018-12-21T14:04:25.158Z,97686.26
2018-12-21T14:06:54.825Z,97678.48
2018-12-21T14:09:24.087Z,97681.27
2018-12-21T14:11:52.588Z,97680.44
2018-12-21T14:14:21.056Z,97683.08
2018-12-21T14:16:49.552Z,97671.08
2018-12-21T14:19:18.096Z,97662.87
2018-12-21T14:21:46.617Z,97663.26
2018-12-21T14:24:15.187Z,97663.17
2018-12-21T14:26:43.723Z,97661.79
2018-12-21T14:29:12.196Z,97662.28
2018-12-21T14:31:40.689Z,97670.13
2018-12-21T14:34:09.181Z,97674.52
2018-12-21T14:36:37.669Z,97672.38
2018-12-21T14:39:07.407Z,97664.27
2018-12-21T14:41:35.931Z,97665.03
2018-12-21T14:44:04.964Z,97669.29
2018-12-21T14:46:33.555Z,97676.41
2018-12-21T14:49:02.015Z,97672.95
2018-12-21T14:51:30.552Z,97668.90
2018-12-21T14:53:59.038Z,97668.41
2018-12-21T14:56:27.563Z,97663.46
2018-12-21T14:58:56.004Z,97659.41
2018-12-21T15:01:24.524Z,97661.29
2018-12-21T15:03:53.099Z,97664.36
2018-12-21T15:06:21.554Z,97663.97
2018-12-21T15:08:50.036Z,97662.45
2018-12-21T15:11:18.499Z,97655.75
2018-12-21T15:13:47.022Z,97656.19
2018-12-21T15:16:15.489Z,97654.05
2018-12-21T15:18:44.045Z,97645.73
2018-12-21T15:21:12.551Z,97644.84
2018-12-21T15:23:41.065Z,97642.14
2018-12-21T15:26:09.543Z,97644.28
2018-12-21T15:28:38.004Z,97643.55
2018-12-21T15:31:06.449Z,97649.85
2018-12-21T15:33:34.935Z,97647.28
2018-12-21T15:36:03.527Z,97644.28
2018-12-21T15:38:31.986Z,97647.52
2018-12-21T15:41:00.435Z,97644.45
2018-12-21T15:43:28.902Z,97644.51
2018-12-21T15:45:57.351Z,97641.31
2018-12-21T15:48:25.848Z,97634.72
2018-12-21T15:50:54.292Z,97643.23
2018-12-21T15:53:22.758Z,97629.02
2018-12-21T15:55:54.889Z,97631.78
2018-12-21T15:58:21.716Z,97632.18
2018-12-21T16:00:50.323Z,97629.28
2018-12-21T16:03:18.969Z,97634.89
2018-12-21T16:05:47.477Z,97637.36
2018-12-21T16:08:15.987Z,97634.16
2018-12-21T16:10:44.475Z,97643.06
2018-12-21T16:13:13.076Z,97631.38
2018-12-21T16:15:41.593Z,97634.32
2018-12-21T16:18:36.013Z,97629.17
2018-12-21T16:21:04.604Z,97639.33
2018-12-21T16:23:33.088Z,97646.48
2018-12-21T16:26:03.632Z,97639.48
2018-12-21T16:28:32.056Z,97627.61
2018-12-21T16:31:00.610Z,97640.30
2018-12-21T16:33:29.174Z,97640.95
2018-12-21T16:35:57.687Z,97635.05
2018-12-21T16:38:26.303Z,97638.73
2018-12-21T16:40:54.783Z,97636.87
2018-12-21T16:43:30.271Z,97637.59
2018-12-21T16:45:58.764Z,97628.14
2018-12-21T16:48:27.235Z,97629.19
2018-12-21T16:50:55.736Z,97626.96
2018-12-21T16:53:24.228Z,97629.59
2018-12-21T16:55:52.658Z,97623.63
2018-12-21T16:58:21.230Z,97633.56
2018-12-21T17:00:49.747Z,97623.34
2018-12-21T17:03:19.007Z,97620.91
2018-12-21T17:05:47.676Z,97622.86
2018-12-21T17:08:16.133Z,97620.91
2018-12-21T17:10:45.423Z,97630.37
2018-12-21T17:13:13.913Z,97630.70
2018-12-21T17:15:42.363Z,97638.84
2018-12-21T17:18:10.825Z,97640.46
2018-12-21T17:20:39.281Z,97629.72
2018-12-21T17:23:07.743Z,97621.59
2018-12-21T17:25:36.200Z,97618.95
2018-12-21T17:28:04.819Z,97610.81
2018-12-21T17:30:33.260Z,97621.88
2018-12-21T17:33:01.732Z,97620.03
2018-12-21T17:35:30.349Z,97627.87
2018-12-21T17:37:58.839Z,97625.64
2018-12-21T17:40:27.290Z,97621.67
2018-12-21T17:42:55.770Z,97626.45
2018-12-21T17:45:24.246Z,97633.86
2018-12-21T17:47:52.724Z,97624.11
2018-12-21T17:50:21.178Z,97620.23
2018-12-21T17:52:49.630Z,97621.88
2018-12-21T17:55:18.081Z,97625.52
2018-12-21T17:57:46.522Z,97615.86
2018-12-21T18:00:18.407Z,97627.95
2018-12-21T18:02:49.718Z,97634.59
2018-12-21T18:05:18.204Z,97624.61
2018-12-21T18:07:46.852Z,97627.57
2018-12-21T18:10:15.567Z,97626.63
2018-12-21T18:12:44.006Z,97627.87
2018-12-21T18:15:13.056Z,97636.83
2018-12-21T18:17:41.502Z,97644.95
2018-12-21T18:20:12.825Z,97640.79
2018-12-21T18:22:42.210Z,97660.11
2018-12-21T18:25:17.636Z,97661.77
2018-12-21T18:27:49.009Z,97655.57
2018-12-21T18:30:23.919Z,97651.90
2018-12-21T18:32:52.361Z,97660.03
2018-12-21T18:35:20.959Z,97649.98
2018-12-21T18:37:55.255Z,97654.95
2018-12-21T18:40:23.756Z,97652.42
2018-12-21T18:42:52.245Z,97647.02
2018-12-21T18:45:20.828Z,97644.29
2018-12-21T18:47:49.283Z,97642.55
2018-12-21T18:50:17.771Z,97647.64
2018-12-21T18:52:46.199Z,97636.36
2018-12-21T18:55:16.396Z,97639.52
2018-12-21T18:57:45.048Z,97644.39
2018-12-21T19:00:15.700Z,97647.53
2018-12-21T19:02:44.161Z,97637.48
2018-12-21T19:05:12.627Z,97628.72
2018-12-21T19:07:41.218Z,97631.87
2018-12-21T19:10:11.031Z,97620.42
2018-12-21T19:12:39.505Z,97625.91
2018-12-21T19:15:10.272Z,97624.89
2018-12-21T19:17:38.747Z,97612.26
2018-12-21T19:20:10.861Z,97614.20
2018-12-21T19:22:39.435Z,97601.86
2018-12-21T19:25:09.737Z,97614.56
2018-12-21T19:27:38.170Z,97612.95
2018-12-21T19:30:10.088Z,97610.51
2018-12-21T19:32:39.071Z,97614.37
2018-12-21T19:35:08.473Z,97608.16
2018-12-21T19:37:36.934Z,97616.70
2018-12-21T19:40:06.775Z,97613.87
2018-12-21T19:42:35.787Z,97609.79
2018-12-21T19:45:04.690Z,97617.73
2018-12-21T19:47:33.149Z,97608.30
2018-12-21T19:50:01.619Z,97619.06
2018-12-21T19:52:30.051Z,97629.36
2018-12-21T19:55:11.708Z,97628.34
2018-12-21T19:57:40.152Z,97619.18
2018-12-21T20:00:09.068Z,97617.77
2018-12-21T20:02:37.518Z,97613.70
2018-12-21T20:05:06.559Z,97614.20
2018-12-21T20:07:35.031Z,97616.21
2018-12-21T20:10:03.886Z,97607.77
2018-12-21T20:12:32.319Z,97617.74
2018-12-21T20:15:00.840Z,97621.82
2018-12-21T20:17:29.250Z,97624.77
2018-12-21T20:19:57.693Z,97624.06
2018-12-21T20:22:26.160Z,97629.05
2018-12-21T20:24:54.624Z,97637.07
2018-12-21T20:27:23.047Z,97628.31
2018-12-21T20:29:51.521Z,97642.88
2018-12-21T20:32:21.961Z,97631.25
2018-12-21T20:34:50.442Z,97647.44
2018-12-21T20:37:18.875Z,97637.14
2018-12-21T20:39:48.387Z,97642.14
2018-12-21T20:42:16.802Z,97643.84
2018-12-21T20:44:45.248Z,97651.97
2018-12-21T20:47:13.679Z,97646.87
2018-12-21T20:49:42.143Z,97661.30
2018-12-21T20:52:10.619Z,97664.45
2018-12-21T20:54:39.102Z,97672.37
2018-12-21T20:57:10.753Z,97668.28
2018-12-21T20:59:40.447Z,97684.08
2018-12-21T21:02:09.003Z,97667.65
2018-12-21T21:04:37.487Z,97687.91
2018-12-21T21:07:05.931Z,97679.75
2018-12-21T21:09:34.408Z,97688.52
2018-12-21T21:12:02.848Z,97681.47
2018-12-21T21:14:31.327Z,97686.23
2018-12-21T21:16:59.764Z,97684.09
2018-12-21T21:19:31.576Z,97692.93
2018-12-21T21:22:00.005Z,97698.41
2018-12-21T21:27:21.568Z,97695.80
2018-12-21T21:29:50.067Z,97699.72
2018-12-21T21:32:18.506Z,97698.06
2018-12-21T21:34:46.954Z,97700.95
2018-12-21T21:37:15.387Z,97688.52
2018-12-21T21:39:43.866Z,97691.05
2018-12-21T21:42:12.323Z,97694.41
2018-12-21T21:44:40.939Z,97690.55
2018-12-21T21:47:09.372Z,97706.69
2018-12-21T21:49:37.803Z,97708.91
2018-12-21T21:52:06.264Z,97703.20
2018-12-21T21:54:34.689Z,97698.94
2018-12-21T21:57:03.164Z,97688.61
2018-12-21T21:59:31.595Z,97695.56
2018-12-21T22:02:00.192Z,97695.50
2018-12-21T22:04:29.491Z,97679.32
2018-12-21T22:06:57.963Z,97689.43
2018-12-21T22:09:26.396Z,97689.36
2018-12-21T22:11:54.857Z,97684.44
2018-12-21T22:14:23.321Z,97684.06
2018-12-21T22:16:51.765Z,97684.41
2018-12-21T22:19:20.190Z,97693.61
2018-12-21T22:21:48.644Z,97690.16
2018-12-21T22:24:17.564Z,97681.17
2018-12-21T22:26:46.024Z,97694.89
2018-12-21T22:29:17.443Z,97693.22
2018-12-21T22:31:45.913Z,97693.47
2018-12-21T22:34:14.339Z,97699.44
2018-12-21T22:36:42.798Z,97694.42
2018-12-21T22:39:11.223Z,97689.84
2018-12-21T22:41:39.696Z,97685.16
2018-12-21T22:44:08.123Z,97688.50
2018-12-21T22:46:36.591Z,97683.84
2018-12-21T22:49:05.028Z,97691.58
2018-12-21T22:51:33.489Z,97691.22
2018-12-21T22:54:01.926Z,97687.39
2018-12-21T22:56:32.627Z,97682.81
2018-12-21T22:59:01.084Z,97687.59
2018-12-21T23:01:29.680Z,97677.92
2018-12-21T23:03:58.108Z,97676.82
2018-12-21T23:06:26.590Z,97682.64
2018-12-21T23:08:55.009Z,97678.13
2018-12-21T23:11:23.463Z,97676.32
2018-12-21T23:13:52.155Z,97672.05
2018-12-21T23:16:20.826Z,97675.66
2018-12-21T23:18:49.367Z,97678.05
2018-12-21T23:21:17.834Z,97674.89
2018-12-21T23:23:46.285Z,97671.20
2018-12-21T23:26:14.764Z,97677.67
2018-12-21T23:28:43.315Z,97673.23
2018-12-21T23:31:11.772Z,97667.77
2018-12-21T23:33:40.256Z,97672.81
2018-12-21T23:36:08.746Z,97677.61
2018-12-21T23:38:37.188Z,97666.47
2018-12-21T23:41:05.778Z,97670.45
2018-12-21T23:43:34.252Z,97669.56
2018-12-21T23:46:02.708Z,97676.91
2018-12-21T23:48:31.175Z,97675.97
2018-12-21T23:50:59.648Z,97683.76
2018-12-21T23:53:28.051Z,97685.41
2018-12-21T23:55:56.532Z,97677.56
2018-12-21T23:58:24.991Z,97677.17
